Time;durP1;ratioP1;P1;durP2;ratioP2;P2;SDS_P1;SDS_P2;PMS_P1;PMS_P2;Temp;Humidity;BMP_temperature;BMP_pressure;BME280_temperature;BME280_humidity;BME280_pressure;Samples;Min_cycle;Max_cycle;Signal;HPM_P1;HPM_P2
2022/12/08 00:04:00;;;;;;;21.77;10.00;;;;;;;0.54;100.00;98672.31;8427730;28;20048;-74
2022/12/08 00:12:20;;;;;;;30.52;11.77;;;;;;;0.58;100.00;98668.13;8424953;28;20052;-74
2022/12/08 00:16:21;;;;;;;26.95;12.18;;;;;;;0.61;100.00;98656.97;8416394;28;20422;-74
2022/12/08 00:20:22;;;;;;;24.58;11.80;;;;;;;0.63;100.00;98668.16;8372817;28;20052;-74
2022/12/08 00:24:28;;;;;;;24.05;11.15;;;;;;;0.65;100.00;98674.00;8419452;28;20052;-73
2022/12/08 00:28:29;;;;;;;29.52;13.98;;;;;;;0.64;100.00;98677.72;8408580;28;20048;-74
2022/12/08 00:32:30;;;;;;;29.02;12.98;;;;;;;0.64;100.00;98662.56;8408180;28;20355;-73
2022/12/08 00:36:31;;;;;;;27.08;12.85;;;;;;;0.66;100.00;98664.97;8405325;28;20382;-74
2022/12/08 00:40:32;;;;;;;29.73;12.77;;;;;;;0.65;100.00;98674.00;8415498;28;20143;-74
2022/12/08 00:44:33;;;;;;;29.27;13.23;;;;;;;0.69;100.00;98669.78;8414188;28;20048;-73
2022/12/08 00:48:34;;;;;;;28.15;12.57;;;;;;;0.71;100.00;98683.63;8369123;28;20063;-74
2022/12/08 00:52:35;;;;;;;26.73;13.00;;;;;;;0.74;100.00;98675.16;8405338;28;20068;-74
2022/12/08 00:56:37;;;;;;;26.00;12.65;;;;;;;0.76;100.00;98686.31;8370743;28;20036;-73
2022/12/08 01:00:40;;;;;;;27.38;12.68;;;;;;;0.77;100.00;98690.56;8403646;28;20136;-73
2022/12/08 01:04:41;;;;;;;29.48;13.00;;;;;;;0.80;100.00;98687.41;8407057;28;20054;-73
2022/12/08 01:08:42;;;;;;;32.92;11.65;;;;;;;0.81;100.00;98686.34;8410743;28;20102;-74
2022/12/08 01:12:43;;;;;;;24.30;11.95;;;;;;;0.85;100.00;98684.78;8421365;28;20052;-74
2022/12/08 01:16:44;;;;;;;27.13;11.38;;;;;;;0.87;100.00;98687.97;8419797;28;20093;-74
2022/12/08 01:20:45;;;;;;;23.50;10.73;;;;;;;0.87;100.00;98687.97;8427626;28;20048;-73
2022/12/08 01:24:46;;;;;;;26.77;11.10;;;;;;;0.90;100.00;98687.47;8391526;28;20060;-73
2022/12/08 01:28:47;;;;;;;23.25;11.43;;;;;;;0.91;100.00;98694.38;8427508;28;20422;-75
2022/12/08 01:32:48;;;;;;;30.20;11.75;;;;;;;0.93;100.00;98691.47;8386199;28;20059;-75
2022/12/08 01:36:49;;;;;;;31.25;12.65;;;;;;;0.94;100.00;98693.88;8427759;28;20048;-74
2022/12/08 01:40:50;;;;;;;26.80;12.40;;;;;;;0.98;100.00;98679.03;8427039;28;20054;-74
2022/12/08 01:45:00;;;;;;;24.98;11.52;;;;;;;1.00;100.00;98682.22;8427111;28;20044;-74
2022/12/08 01:49:12;;;;;;;27.58;11.80;;;;;;;0.95;100.00;98684.88;8424915;28;20075;-74
2022/12/08 01:53:18;;;;;;;26.52;11.68;;;;;;;0.96;100.00;98690.97;8427337;28;20101;-74
2022/12/08 01:57:49;;;;;;;25.85;11.75;;;;;;;0.97;100.00;98682.72;8407305;28;20094;-75
2022/12/08 02:01:51;;;;;;;28.13;12.48;;;;;;;0.96;100.00;98681.13;8241683;28;20074;-75
2022/12/08 02:05:52;;;;;;;25.17;12.43;;;;;;;0.95;100.00;98676.88;8225567;28;20054;-75
2022/12/08 02:09:53;;;;;;;24.77;12.40;;;;;;;0.95;100.00;98679.53;8194308;28;20092;-74
2022/12/08 02:13:55;;;;;;;34.30;13.57;;;;;;;0.91;100.00;98678.44;8257386;28;20055;-74
2022/12/08 02:18:24;;;;;;;28.30;12.55;;;;;;;0.91;100.00;98678.44;8258090;28;20816;-74
2022/12/08 02:22:27;;;;;;;;;;;;;;;0.92;100.00;98685.34;8245898;28;20064;-75
2022/12/08 02:26:40;;;;;;;25.15;11.90;;;;;;;0.92;100.00;98685.34;8247653;28;19921;-73
2022/12/08 02:30:59;;;;;;;30.25;13.25;;;;;;;0.97;100.00;98685.38;8263004;28;20042;-74
2022/12/08 02:35:24;;;;;;;27.00;11.82;;;;;;;0.93;100.00;98681.66;8247065;28;20295;-75
2022/12/08 02:39:42;;;;;;;22.05;10.98;;;;;;;0.95;100.00;98684.88;8430021;28;20063;-74
2022/12/08 02:43:47;;;;;;;22.83;10.88;;;;;;;1.00;100.00;98676.91;8413623;28;20036;-75
2022/12/08 02:47:48;;;;;;;25.98;10.75;;;;;;;1.03;100.00;98676.38;8353313;28;20056;-74
2022/12/08 02:51:49;;;;;;;23.23;10.27;;;;;;;1.01;100.00;98678.50;8396288;28;20048;-74
2022/12/08 02:56:11;;;;;;;23.95;10.15;;;;;;;1.01;100.00;98661.75;8431423;28;20131;-73
2022/12/08 03:00:14;;;;;;;18.00;8.68;;;;;;;1.02;100.00;98664.16;8429616;28;20067;-74
2022/12/08 03:04:33;;;;;;;19.42;8.82;;;;;;;1.07;100.00;98661.50;8429328;28;20040;-73
2022/12/08 03:08:37;;;;;;;15.32;8.02;;;;;;;1.04;100.00;98656.72;8426052;28;20410;-75
2022/12/08 03:12:49;;;;;;;20.90;7.82;;;;;;;1.07;100.00;98656.19;8427868;28;20583;-74
2022/12/08 03:16:54;;;;;;;20.10;7.20;;;;;;;1.05;100.00;98658.34;8411854;28;20052;-73
2022/12/08 03:20:55;;;;;;;15.73;6.88;;;;;;;1.11;100.00;98657.28;8430179;28;20054;-73
2022/12/08 03:24:56;;;;;;;16.55;7.05;;;;;;;1.09;100.00;98659.41;8373957;28;20044;-73
2022/12/08 03:28:57;;;;;;;16.95;7.20;;;;;;;1.12;100.00;98656.22;8425937;28;20109;-73
2022/12/08 03:33:13;;;;;;;15.68;7.10;;;;;;;1.15;100.00;98655.72;8369900;28;20044;-73
2022/12/08 03:37:14;;;;;;;22.13;7.07;;;;;;;1.18;100.00;98657.84;8406651;28;20486;-74
2022/12/08 03:41:18;;;;;;;17.55;7.35;;;;;;;1.13;100.00;98663.16;8427037;28;20044;-74
2022/12/08 03:45:20;;;;;;;19.20;8.52;;;;;;;1.13;100.00;98665.81;8391820;28;20052;-75
2022/12/08 03:49:21;;;;;;;18.02;8.23;;;;;;;1.19;100.00;98653.34;8425821;28;20052;-73
2022/12/08 03:53:22;;;;;;;13.88;8.20;;;;;;;1.23;100.00;98655.22;8391412;28;20044;-74
2022/12/08 03:57:23;;;;;;;16.33;8.45;;;;;;;1.24;100.00;98656.81;8429410;28;20052;-74
2022/12/08 04:01:24;;;;;;;15.75;8.20;;;;;;;1.22;100.00;98658.94;8427584;28;20136;-74
2022/12/08 04:05:25;;;;;;;25.73;9.25;;;;;;;1.21;100.00;98657.34;8425254;28;20055;-75
2022/12/08 04:09:26;;;;;;;22.23;8.73;;;;;;;1.19;100.00;98663.97;8427406;28;20163;-74
2022/12/08 04:13:27;;;;;;;19.98;8.40;;;;;;;1.17;100.00;98655.44;8422590;28;20063;-74
2022/12/08 04:17:28;;;;;;;21.95;7.80;;;;;;;1.18;100.00;98660.50;8427085;28;20056;-74
2022/12/08 04:21:29;;;;;;;13.95;7.75;;;;;;;1.17;100.00;98644.81;8426748;28;20059;-74
2022/12/08 04:25:30;;;;;;;23.00;7.75;;;;;;;1.12;100.00;98653.56;8426846;28;20379;-74
2022/12/08 04:29:31;;;;;;;20.13;7.70;;;;;;;1.11;100.00;98651.97;8421195;28;20048;-74
2022/12/08 04:33:32;;;;;;;23.27;8.98;;;;;;;1.11;100.00;98643.97;8422777;28;20047;-74
2022/12/08 04:37:33;;;;;;;27.63;9.77;;;;;;;1.04;100.00;98643.44;8423432;28;20044;-74
2022/12/08 04:41:34;;;;;;;24.20;10.15;;;;;;;0.92;100.00;98637.50;8374302;28;20541;-73
2022/12/08 04:45:38;;;;;;;25.40;11.35;;;;;;;0.84;100.00;98641.47;8422571;28;20039;-74
2022/12/08 04:49:39;;;;;;;27.33;11.98;;;;;;;0.85;100.00;98642.25;8422207;28;20117;-74
2022/12/08 04:53:40;;;;;;;30.40;13.90;;;;;;;0.87;100.00;98634.81;8426568;28;20105;-75
2022/12/08 04:57:41;;;;;;;62.13;20.30;;;;;;;0.82;100.00;98637.44;8424119;28;20112;-74
2022/12/08 05:01:42;;;;;;;45.40;15.75;;;;;;;0.80;100.00;98634.22;8369885;28;20048;-73
2022/12/08 05:05:43;;;;;;;41.17;15.85;;;;;;;0.77;100.00;98624.13;8426793;28;20081;-74
2022/12/08 05:09:44;;;;;;;70.93;21.63;;;;;;;0.74;100.00;98629.97;8423514;28;20040;-73
2022/12/08 05:13:45;;;;;;;53.47;17.50;;;;;;;0.71;100.00;98619.84;8425179;28;20101;-74
2022/12/08 05:17:46;;;;;;;66.80;24.35;;;;;;;0.75;100.00;98631.53;8426204;28;20048;-74
2022/12/08 05:21:47;;;;;;;73.78;25.17;;;;;;;0.81;100.00;98635.84;8418234;28;20051;-74
2022/12/08 05:25:48;;;;;;;49.92;20.20;;;;;;;0.79;100.00;98633.44;8386705;28;20048;-75
2022/12/08 05:29:49;;;;;;;47.78;18.48;;;;;;;0.80;100.00;98620.94;8425074;28;20398;-73
2022/12/08 05:33:51;;;;;;;36.40;16.55;;;;;;;0.78;100.00;98620.41;8426079;28;20048;-74
2022/12/08 05:37:52;;;;;;;38.72;18.48;;;;;;;0.78;100.00;98625.72;8425602;28;20108;-74
2022/12/08 05:41:53;;;;;;;37.45;17.58;;;;;;;0.80;100.00;98628.91;8425760;28;20040;-74
2022/12/08 05:45:54;;;;;;;36.38;17.90;;;;;;;0.77;100.00;98618.81;8425490;28;20044;-74
2022/12/08 05:49:55;;;;;;;39.13;16.95;;;;;;;0.72;100.00;98626.75;8425360;28;20074;-75
2022/12/08 05:53:57;;;;;;;42.65;18.20;;;;;;;0.66;100.00;98617.16;8425070;28;20164;-73
2022/12/08 05:57:58;;;;;;;45.35;19.77;;;;;;;0.65;100.00;98615.53;8394846;28;20093;-74
2022/12/08 06:01:58;;;;;;;38.42;17.45;;;;;;;0.58;100.00;98610.44;8431747;28;20068;-74
2022/12/08 06:05:59;;;;;;;47.75;18.27;;;;;;;0.47;100.00;98603.47;8431670;28;20054;-73
2022/12/08 06:10:01;;;;;;;35.17;17.40;;;;;;;0.33;100.00;98608.41;8413969;28;20040;-74
2022/12/08 06:14:02;;;;;;;47.15;21.80;;;;;;;0.27;100.00;98604.09;8412851;28;20048;-73
2022/12/08 06:18:03;;;;;;;54.17;27.10;;;;;;;0.34;100.00;98610.03;8430464;28;20044;-74
2022/12/08 06:22:05;;;;;;;285.10;121.30;;;;;;;0.36;100.00;98613.22;8376914;28;20481;-74
2022/12/08 06:26:09;;;;;;;58.10;27.83;;;;;;;0.33;100.00;98623.53;8430831;28;20101;-73
2022/12/08 06:30:10;;;;;;;54.35;25.30;;;;;;;0.28;100.00;98621.66;8428409;28;20048;-73
2022/12/08 06:34:11;;;;;;;58.97;28.80;;;;;;;0.24;100.00;98609.94;8429580;28;20074;-75
2022/12/08 06:38:12;;;;;;;138.13;53.58;;;;;;;0.22;100.00;98612.03;8392109;28;20048;-74
2022/12/08 06:46:33;;;;;;;85.63;35.35;;;;;;;0.13;100.00;98618.88;8425774;28;20398;-73
2022/12/08 06:50:34;;;;;;;74.45;32.38;;;;;;;0.11;100.00;98614.84;8430223;28;20058;-73
2022/12/08 06:54:35;;;;;;;57.38;27.48;;;;;;;0.12;100.00;98617.28;8418341;28;20067;-74
2022/12/08 06:58:36;;;;;;;59.78;27.65;;;;;;;0.12;100.00;98617.28;8414009;28;20059;-73
2022/12/08 07:02:37;;;;;;;53.90;25.65;;;;;;;0.09;100.00;98617.78;8415428;28;20482;-73
2022/12/08 07:06:38;;;;;;;40.15;21.92;;;;;;;0.07;100.00;98619.88;8402742;28;20522;-74
2022/12/08 07:10:39;;;;;;;42.17;21.80;;;;;;;0.06;100.00;98623.59;8407617;28;20044;-74
2022/12/08 07:14:40;;;;;;;42.53;22.73;;;;;;;0.04;100.00;98620.41;8351845;28;20040;-74
2022/12/08 07:18:42;;;;;;;46.03;22.75;;;;;;;0.05;100.00;98622.00;8405785;28;20053;-73
2022/12/08 07:22:51;;;;;;;48.53;23.95;;;;;;;0.09;100.00;98617.78;8399280;28;20451;-74
2022/12/08 07:26:52;;;;;;;;;;;;;;;0.12;100.00;98617.28;8429861;28;20048;-73
2022/12/08 07:30:53;;;;;;;47.92;23.50;;;;;;;0.15;100.00;98622.09;8429540;28;19924;-74
2022/12/08 07:34:54;;;;;;;58.88;25.45;;;;;;;0.18;100.00;98632.19;8429681;28;20052;-73
2022/12/08 07:38:55;;;;;;;49.30;24.02;;;;;;;0.21;100.00;98625.59;8415608;28;20490;-73
2022/12/08 07:42:56;;;;;;;47.55;23.65;;;;;;;0.25;100.00;98616.88;8429677;28;20047;-73
2022/12/08 07:46:57;;;;;;;49.13;25.17;;;;;;;0.31;100.00;98615.84;8429341;28;20048;-73
2022/12/08 07:51:02;;;;;;;54.83;26.65;;;;;;;0.31;100.00;98615.84;8429490;28;20040;-75
2022/12/08 07:55:04;;;;;;;51.92;25.63;;;;;;;0.36;100.00;98618.53;8428533;28;20051;-73
2022/12/08 07:59:05;;;;;;;56.58;28.92;;;;;;;0.38;100.00;98611.09;8410482;28;20075;-74
2022/12/08 08:03:07;;;;;;;59.65;27.02;;;;;;;0.41;100.00;98621.25;8423109;28;20048;-74
2022/12/08 08:07:08;;;;;;;57.03;26.90;;;;;;;0.46;100.00;98612.50;8429310;28;20048;-74
2022/12/08 08:11:09;;;;;;;60.83;27.60;;;;;;;0.48;100.00;98614.91;8373425;28;20071;-73
2022/12/08 08:15:11;;;;;;;55.55;26.88;;;;;;;0.52;100.00;98616.00;8392257;28;20044;-73
2022/12/08 08:19:12;;;;;;;49.33;25.55;;;;;;;0.59;100.00;98621.88;8409617;28;20048;-74
2022/12/08 08:23:13;;;;;;;71.60;31.63;;;;;;;0.65;100.00;98636.78;8427951;28;20044;-74
2022/12/08 08:27:14;;;;;;;61.65;27.17;;;;;;;0.74;100.00;98637.94;8428059;28;20181;-73
2022/12/08 08:31:15;;;;;;;57.42;27.30;;;;;;;0.83;100.00;98625.75;8330565;28;20032;-73
2022/12/08 08:35:16;;;;;;;58.30;27.90;;;;;;;0.95;100.00;98631.69;8428099;28;20056;-73
2022/12/08 08:39:17;;;;;;;55.35;28.20;;;;;;;1.05;100.00;98625.63;8427404;28;20044;-74
2022/12/08 08:43:30;;;;;;;58.42;27.73;;;;;;;1.15;100.00;98626.47;8427204;28;20159;-73
2022/12/08 08:47:31;;;;;;;57.25;29.25;;;;;;;1.25;100.00;98621.19;8379958;28;20052;-73
2022/12/08 08:51:33;;;;;;;58.80;26.88;;;;;;;1.35;100.00;98619.63;8391569;28;20051;-74
2022/12/08 08:55:33;;;;;;;52.78;25.20;;;;;;;1.40;100.00;98622.31;8390983;28;20087;-73
2022/12/08 08:59:35;;;;;;;52.25;26.33;;;;;;;1.50;100.00;98622.34;8427524;28;20048;-73
2022/12/08 09:03:35;;;;;;;54.90;26.58;;;;;;;1.63;100.00;98616.53;8426942;28;20559;-74
2022/12/08 09:07:37;;;;;;;55.53;25.77;;;;;;;1.75;100.00;98618.94;8426647;28;20056;-73
2022/12/08 09:11:38;;;;;;;49.75;24.27;;;;;;;1.87;100.00;98606.97;8417876;28;20456;-73
2022/12/08 09:15:39;;;;;;;53.58;25.50;;;;;;;1.95;100.00;98595.81;8426624;28;20044;-73
2022/12/08 09:19:40;;;;;;;44.25;23.02;;;;;;;2.09;100.00;98602.22;8426743;28;20546;-73
2022/12/08 09:23:42;;;;;;;48.03;23.23;;;;;;;2.26;100.00;98603.81;8425518;28;20108;-73
2022/12/08 09:27:43;;;;;;;42.90;22.60;;;;;;;2.35;100.00;98596.88;8426455;28;20044;-73
2022/12/08 09:31:44;;;;;;;40.08;20.05;;;;;;;2.43;100.00;98588.38;8340155;28;20155;-73
2022/12/08 09:35:45;;;;;;;32.60;18.10;;;;;;;2.48;100.00;98586.50;8425442;28;20044;-73
2022/12/08 09:39:46;;;;;;;33.08;17.60;;;;;;;2.59;100.00;98592.63;8389675;28;20051;-74
2022/12/08 09:44:08;;;;;;;28.95;15.40;;;;;;;2.69;98.50;98587.25;8425128;28;20044;-73
2022/12/08 09:48:14;;;;;;;25.05;13.85;;;;;;;2.83;97.95;98577.63;8416750;28;20052;-73
2022/12/08 09:52:20;;;;;;;26.40;13.32;;;;;;;2.97;97.48;98578.63;8408131;28;20044;-74
2022/12/08 09:56:23;;;;;;;22.70;13.02;;;;;;;3.11;94.97;98578.06;8408352;28;20047;-73
2022/12/08 10:00:25;;;;;;;23.52;12.68;;;;;;;3.29;94.47;98574.78;8425932;28;20106;-73
2022/12/08 10:04:37;;;;;;;22.67;12.32;;;;;;;3.55;92.40;98578.91;8401124;28;20052;-73
2022/12/08 10:08:56;;;;;;;21.33;12.07;;;;;;;3.66;91.49;98574.31;8425815;28;20105;-73
2022/12/08 10:13:00;;;;;;;;;;;;;;;3.77;91.60;98576.66;8427043;28;20047;-73
2022/12/08 10:17:08;;;;;;;22.63;11.82;;;;;;;4.02;91.59;98577.56;8426074;28;19930;-73
2022/12/08 10:21:17;;;;;;;24.15;11.40;;;;;;;4.02;89.74;98566.88;8424985;28;20052;-73
2022/12/08 10:25:32;;;;;;;21.23;10.73;;;;;;;4.05;88.36;98556.41;8414820;28;20055;-73
2022/12/08 10:29:33;;;;;;;17.90;10.00;;;;;;;4.25;86.25;98566.13;8425599;28;20071;-74
2022/12/08 10:33:34;;;;;;;21.50;10.65;;;;;;;4.18;86.32;98561.09;8373888;28;20052;-73
2022/12/08 10:37:35;;;;;;;18.98;10.90;;;;;;;4.27;86.66;98550.63;8425672;28;20036;-72
2022/12/08 10:41:36;;;;;;;22.20;10.82;;;;;;;4.46;85.60;98546.16;8391239;28;20398;-74
2022/12/08 10:45:40;;;;;;;19.10;9.90;;;;;;;4.54;84.42;98542.88;8431842;28;20072;-74
2022/12/08 10:49:41;;;;;;;22.45;11.15;;;;;;;4.51;84.08;98548.78;8431487;28;20562;-73
2022/12/08 10:53:45;;;;;;;17.48;10.07;;;;;;;4.58;85.59;98549.25;8431378;28;20102;-73
2022/12/08 10:57:50;;;;;;;20.75;10.20;;;;;;;4.44;84.56;98537.63;8431568;28;20051;-74
2022/12/08 11:01:53;;;;;;;16.60;9.32;;;;;;;4.46;83.71;98546.16;8431211;28;20093;-73
2022/12/08 11:05:56;;;;;;;15.80;9.50;;;;;;;4.45;84.51;98544.56;8413117;28;20520;-73
2022/12/08 11:09:57;;;;;;;19.92;9.57;;;;;;;4.71;84.21;98546.97;8417705;28;20541;-74
2022/12/08 11:14:07;;;;;;;19.52;10.30;;;;;;;4.72;83.67;98537.88;8413214;28;20048;-74
2022/12/08 11:18:21;;;;;;;17.20;9.35;;;;;;;4.54;81.63;98526.84;8429825;28;20051;-73
2022/12/08 11:22:34;;;;;;;17.83;9.10;;;;;;;4.53;81.57;98530.59;8413145;28;20056;-74
2022/12/08 11:26:36;;;;;;;23.10;10.25;;;;;;;4.38;81.58;98533.44;8429803;28;20048;-73
2022/12/08 11:30:41;;;;;;;16.92;9.20;;;;;;;4.41;82.11;98532.84;8410197;28;20048;-74
2022/12/08 11:34:52;;;;;;;20.55;9.73;;;;;;;4.38;82.15;98528.06;8412011;28;20036;-73
2022/12/08 11:38:59;;;;;;;15.32;9.02;;;;;;;4.41;82.15;98527.50;8429477;28;20055;-74
2022/12/08 11:43:02;;;;;;;21.92;10.13;;;;;;;4.36;82.54;98530.22;8429390;28;20517;-74
2022/12/08 11:47:07;;;;;;;19.92;9.95;;;;;;;4.38;81.88;98528.06;8430148;28;20044;-74
2022/12/08 11:51:23;;;;;;;17.02;9.50;;;;;;;4.44;81.93;98526.91;8420089;28;20554;-73
2022/12/08 11:55:38;;;;;;;26.80;10.75;;;;;;;4.62;81.37;98518.19;8360801;28;20054;-74
2022/12/08 11:59:43;;;;;;;20.13;9.82;;;;;;;4.63;81.25;98519.78;8431217;28;20044;-74
2022/12/08 12:03:48;;;;;;;14.98;9.50;;;;;;;4.73;81.44;98513.53;8412880;28;20048;-74
2022/12/08 12:08:07;;;;;;;17.27;9.88;;;;;;;4.88;80.10;98504.53;8431403;28;20498;-73
2022/12/08 12:12:17;;;;;;;17.10;8.77;;;;;;;4.85;79.73;98515.81;8418326;28;20087;-73
2022/12/08 12:16:59;;;;;;;18.13;9.88;;;;;;;4.74;79.99;98508.97;8428381;28;20051;-72
2022/12/08 12:21:10;;;;;;;15.02;8.85;;;;;;;4.70;78.98;98507.97;8316670;28;20052;-75
2022/12/08 12:25:18;;;;;;;18.33;9.40;;;;;;;4.58;78.74;98501.13;8299116;28;20478;-75
2022/12/08 12:29:20;;;;;;;;;;;;;;;4.54;79.26;98505.44;8317417;28;20429;-73
2022/12/08 12:33:21;;;;;;;16.48;9.75;;;;;;;4.41;79.76;98500.75;8302218;28;20303;-75
2022/12/08 12:37:34;;;;;;;15.25;9.45;;;;;;;4.44;79.80;98500.19;8292036;28;20193;-73
2022/12/08 12:41:41;;;;;;;18.45;9.35;;;;;;;4.49;79.33;98502.84;8292220;28;20057;-74
2022/12/08 12:45:44;;;;;;;19.60;9.63;;;;;;;4.47;79.84;98499.63;8292176;28;20725;-73
2022/12/08 12:49:47;;;;;;;18.05;9.77;;;;;;;4.44;79.17;98494.84;8291164;28;20085;-73
2022/12/08 12:53:49;;;;;;;18.65;9.68;;;;;;;4.33;79.70;98493.38;8325241;28;20102;-74
2022/12/08 12:57:53;;;;;;;17.75;9.98;;;;;;;4.30;79.61;98477.88;8392427;28;20044;-73
2022/12/08 13:01:55;;;;;;;16.67;9.68;;;;;;;4.44;79.57;98484.16;8393522;28;20529;-74
2022/12/08 13:05:56;;;;;;;20.67;10.13;;;;;;;4.54;79.14;98484.06;8394063;28;20121;-74
2022/12/08 13:10:28;;;;;;;20.15;10.38;;;;;;;4.67;78.41;98483.38;8393721;28;20052;-73
2022/12/08 13:14:34;;;;;;;17.45;9.57;;;;;;;4.63;77.91;98477.00;8290889;28;20058;-73
2022/12/08 13:18:38;;;;;;;19.83;10.15;;;;;;;4.77;78.54;98477.09;8239915;28;20053;-73
2022/12/08 13:22:53;;;;;;;17.60;10.63;;;;;;;4.83;77.99;98483.19;8290295;28;20066;-74
2022/12/08 13:27:03;;;;;;;17.55;10.35;;;;;;;4.73;78.89;98475.28;8290737;28;20081;-74
2022/12/08 13:31:38;;;;;;;19.92;11.70;;;;;;;4.46;79.65;98465.94;8290565;28;20557;-74
2022/12/08 13:35:44;;;;;;;22.40;11.07;;;;;;;4.39;79.31;98462.81;8287223;28;20590;-73
2022/12/08 13:39:56;;;;;;;20.05;10.82;;;;;;;4.24;79.57;98473.66;8281016;28;20049;-73
2022/12/08 13:44:03;;;;;;;17.98;10.85;;;;;;;4.23;79.48;98477.41;8260835;28;20068;-74
2022/12/08 13:48:12;;;;;;;17.98;10.77;;;;;;;3.99;80.71;98477.38;8285281;28;20054;-74
2022/12/08 13:52:18;;;;;;;22.10;10.85;;;;;;;3.75;82.05;98477.31;8369053;28;20102;-73
2022/12/08 13:56:19;;;;;;;21.20;10.48;;;;;;;3.59;82.82;98478.53;8391525;28;20080;-73
2022/12/08 14:00:22;;;;;;;25.05;11.40;;;;;;;3.46;83.52;98473.78;8390995;28;20048;-73
2022/12/08 14:04:25;;;;;;;21.00;11.95;;;;;;;3.37;83.92;98480.81;8392996;28;20052;-73
2022/12/08 14:08:32;;;;;;;20.55;11.85;;;;;;;3.29;84.22;98478.69;8392865;28;20044;-74
2022/12/08 14:12:33;;;;;;;26.17;11.75;;;;;;;3.15;85.07;98483.06;8393009;28;20052;-74
2022/12/08 14:16:42;;;;;;;24.48;13.25;;;;;;;2.93;86.20;98478.91;8393426;28;20128;-73
2022/12/08 14:20:44;;;;;;;34.13;15.85;;;;;;;2.81;87.24;98473.09;8398736;28;20048;-73
2022/12/08 14:24:50;;;;;;;42.30;19.38;;;;;;;2.74;87.42;98483.25;8397480;28;20347;-74
2022/12/08 14:28:51;;;;;;;32.20;16.40;;;;;;;2.59;88.30;98475.31;8398047;28;20055;-73
2022/12/08 14:33:02;;;;;;;31.35;16.38;;;;;;;2.53;88.14;98481.75;8398674;28;20048;-73
2022/12/08 14:37:03;;;;;;;31.27;16.05;;;;;;;2.37;89.00;98482.84;8398120;28;20099;-74
2022/12/08 14:41:07;;;;;;;31.92;15.57;;;;;;;2.23;89.62;98487.13;8361784;28;20041;-74
2022/12/08 14:45:12;;;;;;;31.45;16.42;;;;;;;2.10;89.83;98499.16;8393818;28;20048;-74
2022/12/08 14:49:35;;;;;;;51.67;22.52;;;;;;;2.00;90.30;98494.63;8418698;28;20082;-74
2022/12/08 14:53:42;;;;;;;55.00;24.88;;;;;;;1.83;90.65;98498.63;8431295;28;20052;-73
2022/12/08 14:57:47;;;;;;;63.22;26.95;;;;;;;1.62;91.37;98503.13;8431217;28;20080;-73
2022/12/08 15:01:50;;;;;;;62.78;26.02;;;;;;;1.54;92.40;98501.00;8412455;28;20135;-73
2022/12/08 15:05:54;;;;;;;57.92;24.55;;;;;;;1.51;92.28;98501.53;8404352;28;20433;-75
2022/12/08 15:10:16;;;;;;;56.58;25.02;;;;;;;1.51;92.21;98502.34;8355222;28;20044;-73
2022/12/08 15:14:29;;;;;;;59.25;24.13;;;;;;;1.52;92.75;98503.13;8360005;28;20135;-73
2022/12/08 15:18:39;;;;;;;72.13;27.90;;;;;;;1.54;93.06;98503.66;8358990;28;20507;-73
2022/12/08 15:22:40;;;;;;;57.28;24.33;;;;;;;1.61;92.82;98501.53;8354735;28;20048;-73
2022/12/08 15:26:46;;;;;;;85.32;29.70;;;;;;;1.60;93.26;98499.94;8358919;28;20052;-73
2022/12/08 15:30:47;;;;;;;72.68;28.27;;;;;;;1.65;93.42;98502.59;8326013;28;20479;-74
2022/12/08 15:34:50;;;;;;;62.10;26.33;;;;;;;1.82;92.88;98508.47;8358875;28;20491;-74
2022/12/08 15:38:51;;;;;;;64.38;27.58;;;;;;;1.87;92.95;98497.81;8358785;28;20131;-73
2022/12/08 15:42:52;;;;;;;62.28;28.15;;;;;;;1.79;93.67;98502.88;8398957;28;20040;-73
2022/12/08 15:46:53;;;;;;;44.55;22.27;;;;;;;1.79;94.03;98492.25;8428665;28;20044;-73
2022/12/08 15:50:55;;;;;;;44.30;21.52;;;;;;;1.77;93.63;98492.50;8410809;28;20043;-73
2022/12/08 15:54:56;;;;;;;60.17;26.23;;;;;;;1.76;93.92;98493.56;8390396;28;20121;-72
2022/12/08 15:58:57;;;;;;;51.25;23.58;;;;;;;1.78;93.90;98496.75;8376972;28;20059;-73
2022/12/08 16:02:59;;;;;;;56.63;25.77;;;;;;;1.75;94.00;98491.16;8429949;28;20051;-73
2022/12/08 16:07:00;;;;;;;53.47;23.42;;;;;;;1.77;93.72;98484.50;8428651;28;20446;-73
2022/12/08 16:15:21;;;;;;;53.08;23.25;;;;;;;1.87;93.13;98487.16;8425847;28;20048;-72
2022/12/08 16:19:22;;;;;;;55.88;27.52;;;;;;;1.78;93.25;98491.44;8428437;28;20495;-73
2022/12/08 16:23:23;;;;;;;55.95;26.52;;;;;;;1.66;93.51;98482.91;8428245;28;20044;-74
2022/12/08 16:27:34;;;;;;;58.20;27.35;;;;;;;1.56;94.32;98493.56;8428079;28;20081;-73
2022/12/08 16:31:36;;;;;;;69.60;31.45;;;;;;;1.56;94.66;98490.88;8408814;28;20405;-73
2022/12/08 16:35:37;;;;;;;70.45;29.90;;;;;;;1.59;94.67;98493.00;8424071;28;20055;-76
2022/12/08 16:39:38;;;;;;;69.97;30.38;;;;;;;1.56;94.78;98496.22;8421999;28;20052;-73
2022/12/08 16:43:39;;;;;;;60.53;27.30;;;;;;;1.61;94.80;98490.88;8424177;28;20485;-74
2022/12/08 16:47:45;;;;;;;61.03;27.40;;;;;;;1.62;94.76;98492.50;8398867;28;20059;-73
2022/12/08 16:51:46;;;;;;;60.13;27.92;;;;;;;1.62;94.91;98492.50;8428933;28;20051;-74
2022/12/08 16:55:48;;;;;;;56.95;25.80;;;;;;;1.63;95.21;98488.78;8424093;28;20060;-73
2022/12/08 16:59:49;;;;;;;52.50;23.85;;;;;;;1.65;95.12;98486.63;8427246;28;20486;-73
2022/12/08 17:03:50;;;;;;;63.05;27.00;;;;;;;1.60;94.88;98483.97;8427189;28;20036;-73
2022/12/08 17:07:52;;;;;;;56.10;24.90;;;;;;;1.58;95.08;98486.13;8356181;28;20118;-73
2022/12/08 17:11:53;;;;;;;65.22;28.25;;;;;;;1.59;95.29;98485.03;8351666;28;20084;-72
2022/12/08 17:15:54;;;;;;;58.72;25.67;;;;;;;1.64;95.48;98485.03;8356784;28;20056;-73
2022/12/08 17:19:55;;;;;;;57.80;26.60;;;;;;;1.71;95.31;98480.25;8354995;28;20522;-73
2022/12/08 17:23:56;;;;;;;57.15;25.35;;;;;;;1.77;95.18;98471.19;8355337;28;20124;-73
2022/12/08 17:27:58;;;;;;;53.38;24.30;;;;;;;1.85;94.50;98475.97;8354452;28;20092;-76
2022/12/08 17:31:59;;;;;;;54.30;24.48;;;;;;;1.90;94.21;98489.31;8355283;28;20044;-73
2022/12/08 17:36:00;;;;;;;48.63;23.23;;;;;;;1.89;93.89;98487.72;8355157;28;20064;-74
2022/12/08 17:40:01;;;;;;;55.28;24.50;;;;;;;1.94;93.50;98487.72;8426236;28;20425;-73
2022/12/08 17:44:02;;;;;;;50.67;23.70;;;;;;;1.94;93.19;98485.03;8424780;28;20139;-74
2022/12/08 17:48:03;;;;;;;52.50;22.77;;;;;;;1.87;93.08;98489.84;8421873;28;20048;-73
2022/12/08 17:52:07;;;;;;;52.25;23.73;;;;;;;1.84;93.00;98490.38;8394062;28;20181;-73
2022/12/08 17:56:20;;;;;;;53.58;23.10;;;;;;;1.76;93.06;98493.56;8395259;28;20044;-75
2022/12/08 18:00:23;;;;;;;58.50;24.88;;;;;;;1.66;93.65;98488.22;8432733;28;20101;-73
2022/12/08 18:04:26;;;;;;;59.97;26.92;;;;;;;1.62;93.79;98487.16;8432229;28;20505;-74
2022/12/08 18:08:29;;;;;;;64.20;25.77;;;;;;;1.65;93.78;98491.94;8360233;28;20048;-74
2022/12/08 18:12:30;;;;;;;56.53;26.25;;;;;;;1.62;94.26;98492.50;8432974;28;20044;-73
2022/12/08 18:16:32;;;;;;;59.53;26.00;;;;;;;1.61;94.37;98488.22;8432249;28;20043;-73
2022/12/08 18:20:33;;;;;;;67.25;29.77;;;;;;;1.61;94.22;98485.56;8432438;28;20048;-73
2022/12/08 18:24:35;;;;;;;64.75;27.88;;;;;;;1.58;94.44;98483.44;8431864;28;20047;-73
2022/12/08 18:28:37;;;;;;;62.75;25.17;;;;;;;1.62;94.66;98481.84;8431935;28;20060;-73
2022/12/08 18:32:38;;;;;;;56.65;24.60;;;;;;;1.60;94.20;98494.63;8427860;28;20233;-73
2022/12/08 18:36:39;;;;;;;59.65;26.30;;;;;;;1.66;94.00;98493.56;8430914;28;20161;-73
2022/12/08 18:40:41;;;;;;;52.72;23.80;;;;;;;1.69;93.66;98493.81;8412166;28;20051;-73
2022/12/08 18:44:42;;;;;;;62.35;25.70;;;;;;;1.68;93.43;98496.75;8433453;28;20116;-73
2022/12/08 18:48:46;;;;;;;59.83;25.80;;;;;;;1.70;92.84;98489.28;8418912;28;20411;-73
2022/12/08 18:52:48;;;;;;;56.50;24.48;;;;;;;1.69;92.95;98477.84;8413709;28;20109;-74
2022/12/08 18:56:50;;;;;;;63.75;25.63;;;;;;;1.70;92.71;98489.28;8345576;28;20055;-73
2022/12/08 19:00:51;;;;;;;54.17;25.13;;;;;;;1.70;92.66;98484.75;8430188;28;20056;-73
2022/12/08 19:04:54;;;;;;;66.53;27.33;;;;;;;1.70;92.70;98481.31;8428576;28;20410;-73
2022/12/08 19:08:56;;;;;;;70.90;26.83;;;;;;;1.71;92.44;98485.56;8430932;28;20048;-73